Latest Weather Observations for Wulungurru (Kintore)

IDD60801

Issued at 4:31 pm CST Sunday 30 April 2017 (issued every 30 minutes, with the page automatically refreshed every 10 minutes)

About weather observations | Map of weather stations | Latest weather observations for NT | Other Formats
Station Details ID: 015664 Name: WALUNGURRU AIRPORT Lat: -23.27 Lon: 129.38 Height: 454.3 m
Data from the previous 72 hours. | See also: Recent months at Wulungurru (Kintore)
Date/Time
CST
Temp
°C
App
Temp
°C
Dew
Point
°C
Rel
Hum
%
Delta-T
°C
Wind Press
QNH
hPa
Press
MSL
hPa
Rain since
9am
mm
Dir  Spd
km/h
Gust
km/h
Spd
kts
Gust
kts
30/04:30pm 25.6 22.8 2.9 23 11.3 NE 7 13 4 7 1016.3 - 0.0
30/04:00pm 25.8 22.5 2.5 22 11.5 N 9 15 5 8 1016.6 - 0.0
30/03:30pm 26.7 23.9 3.2 22 11.9 NNE 7 11 4 6 1016.7 - 0.0
30/03:00pm 26.5 23.8 3.7 23 11.6 WNW 7 11 4 6 1016.9 1014.9 0.0
30/02:30pm 25.6 21.9 2.3 22 11.5 NNW 11 20 6 11 1016.9 - 0.0
30/02:00pm 25.5 21.8 2.2 22 11.5 WNW 11 15 6 8 1017.2 - 0.0
30/01:30pm 25.4 21.8 2.8 23 11.2 N 11 19 6 10 1017.7 - 0.0
30/01:00pm 25.1 21.5 3.1 24 11.0 N 11 20 6 11 1018.1 - 0.0
30/12:30pm 24.1 20.9 2.9 25 10.5 N 9 17 5 9 1018.8 - 0.0
30/12:00pm 23.5 20.0 3.4 27 9.9 N 11 15 6 8 1019.1 1017.1 0.0
30/11:30am 22.6 17.7 2.1 26 9.9 N 17 22 9 12 1019.6 - 0.0
30/11:00am 23.0 18.6 2.5 26 10.0 NNE 15 22 8 12 1019.7 - 0.0
30/10:30am 22.3 17.1 3.4 29 9.3 NE 20 26 11 14 1020.0 - 0.0
30/10:00am 21.0 16.0 3.7 32 8.5 NE 19 24 10 13 1020.3 - 0.0
30/09:30am 19.7 14.5 3.8 35 7.7 ENE 20 26 11 14 1020.3 - 0.0
30/09:00am 18.8 13.6 3.8 37 7.2 ENE 20 26 11 14 1020.0 1018.1 0.0
30/08:30am 18.0 12.9 3.9 39 6.8 ENE 20 26 11 14 1020.0 - 0.0
30/08:00am 17.6 12.4 3.5 39 6.7 ENE 20 24 11 13 1019.6 - 0.0
30/07:30am 17.5 12.5 3.8 40 6.6 ENE 19 24 10 13 1019.3 - 0.0
30/07:00am 17.4 12.2 3.7 40 6.5 ENE 20 26 11 14 1018.9 - 0.0
30/06:30am 17.3 12.2 3.9 41 6.4 ENE 20 28 11 15 1018.8 - 0.0
30/06:00am 17.6 12.4 3.5 39 6.7 ENE 20 28 11 15 1018.5 1016.6 0.0
30/05:30am 18.0 12.6 2.7 36 7.2 E 20 30 11 16 1018.4 - 0.0
30/05:00am 18.0 12.6 2.7 36 7.2 E 20 28 11 15 1018.3 - 0.0
30/04:30am 16.7 12.9 4.1 43 6.0 SE 13 22 7 12 1018.1 - 0.0
30/04:00am 16.4 10.9 4.1 44 5.9 SSE 22 28 12 15 1018.4 - 0.0
30/03:30am 16.7 10.8 3.7 42 6.2 SSE 24 30 13 16 1018.0 - 0.0
30/03:00am 16.7 11.1 3.7 42 6.2 SSE 22 30 12 16 1018.2 1016.3 0.0
30/02:30am 16.9 11.4 3.9 42 6.2 SSE 22 28 12 15 1018.4 - 0.0
30/02:00am 17.0 11.8 3.7 41 6.3 SSE 20 26 11 14 1018.8 - 0.0
30/01:30am 16.9 11.9 3.6 41 6.3 SSE 19 24 10 13 1018.9 - 0.0
30/01:00am 16.7 12.2 4.1 43 6.0 S 17 22 9 12 1019.0 - 0.0
30/12:30am 17.3 12.1 3.6 40 6.5 SSE 20 28 11 15 1019.2 - 0.0
30/12:00am 17.1 12.6 4.4 43 6.1 S 17 22 9 12 1019.5 1017.6 0.0
 
Date/Time
CST
Temp
°C
App
Temp
°C
Dew
Point
°C
Rel
Hum
%
Delta-T
°C
Wind Press
QNH
hPa
Press
MSL
hPa
Rain since
9am
mm
Dir  Spd
km/h
Gust
km/h
Spd
kts
Gust
kts
29/11:30pm 17.8 12.8 3.7 39 6.8 SSE 19 28 10 15 1019.7 - 0.0
29/11:00pm 18.1 12.9 3.6 38 6.9 SSE 20 30 11 16 1019.5 - 0.0
29/10:30pm 18.8 13.6 3.4 36 7.4 SSE 20 30 11 16 1019.5 - 0.0
29/10:00pm 18.6 13.5 3.3 36 7.3 SSE 19 26 10 14 1019.7 - 0.0
29/09:30pm 18.1 14.7 3.9 39 6.8 SSE 11 15 6 8 1019.9 - 0.0
29/09:00pm 18.7 15.2 3.7 37 7.2 SSE 11 15 6 8 1019.7 1017.8 0.0
29/08:30pm 18.4 14.6 3.8 38 7.0 S 13 15 7 8 1019.8 - 0.0
29/08:00pm 18.2 14.4 4.0 39 6.9 S 13 15 7 8 1019.4 - 0.0
29/07:30pm 19.0 15.1 3.6 36 7.4 S 13 15 7 8 1019.6 - 0.0
29/07:00pm 19.8 16.3 3.5 34 7.9 SSE 11 15 6 8 1019.2 - 0.0
29/06:30pm 21.4 17.7 2.6 29 9.1 SE 11 15 6 8 1019.1 - 0.0
29/06:00pm 22.6 18.6 2.7 27 9.7 SE 13 17 7 9 1018.9 1016.9 0.0
29/05:30pm 23.1 18.7 2.6 26 10.0 SE 15 20 8 11 1018.5 - 0.0
29/05:00pm 23.7 19.6 2.5 25 10.4 SE 13 22 7 12 1018.3 - 0.0
29/04:30pm 23.7 18.9 2.5 25 10.4 ESE 17 20 9 11 1018.3 - 0.0
29/04:00pm 24.5 19.9 1.4 22 11.1 SSE 15 24 8 13 1018.6 - 0.0
29/03:30pm 24.4 20.2 1.9 23 10.9 SE 13 19 7 10 1018.5 - 0.0
29/03:00pm 24.2 20.0 1.8 23 10.8 ESE 13 22 7 12 1018.5 1016.6 0.0
29/02:30pm 24.1 20.9 2.9 25 10.5 S 9 19 5 10 1019.0 - 0.0
29/02:00pm 23.7 19.3 2.5 25 10.4 SSE 15 20 8 11 1019.4 - 0.0
29/01:30pm 23.5 20.4 3.4 27 10.0 E 9 15 5 8 1019.8 - 0.0
29/01:00pm 22.5 18.4 2.1 26 9.8 ESE 13 22 7 12 1020.3 - 0.0
29/12:30pm 22.3 18.5 3.9 30 9.1 E 13 22 7 12 1020.6 - 0.0
29/12:00pm 21.1 16.7 2.9 30 8.8 E 15 22 8 12 1021.4 1019.5 0.0
29/11:30am 20.8 15.8 3.5 32 8.4 ENE 19 28 10 15 1021.7 - 0.0
29/11:00am 19.9 14.7 2.3 31 8.3 ENE 19 26 10 14 1022.0 - 0.0
29/10:30am 19.1 13.4 2.9 34 7.7 ENE 22 30 12 16 1022.3 - 0.0
29/10:00am 17.7 11.2 2.5 36 7.1 ENE 26 35 14 19 1022.2 - 0.0
29/09:30am 16.5 8.8 2.5 39 6.5 ENE 32 41 17 22 1022.0 - 0.0
29/09:00am 15.6 8.7 2.7 42 5.9 ENE 28 39 15 21 1021.8 1019.9 0.0
29/08:30am 14.4 8.5 1.7 42 5.7 ENE 22 33 12 18 1021.9 - 0.0
29/08:00am 14.4 7.7 1.7 42 5.7 ENE 26 37 14 20 1021.4 - 0.0
29/07:30am 14.1 7.8 1.4 42 5.6 E 24 37 13 20 1021.2 - 0.0
29/07:00am 14.1 7.7 1.1 41 5.7 E 24 33 13 18 1021.2 - 0.0
29/06:30am 14.5 8.4 0.7 39 6.0 E 22 37 12 20 1021.0 - 0.0
29/06:00am 14.8 8.0 0.6 38 6.2 E 26 39 14 21 1020.4 1018.5 0.0
29/05:30am 14.9 8.0 0.4 37 6.3 E 26 33 14 18 1020.1 - 0.0
29/05:00am 15.8 8.1 0.0 34 6.9 E 30 41 16 22 1020.1 - 0.0
29/04:30am 16.2 8.5 -0.1 33 7.1 E 30 39 16 21 1020.0 - 0.0
29/04:00am 16.3 9.4 0.0 33 7.1 E 26 37 14 20 1020.1 - 0.0
29/03:30am 16.7 9.4 -0.1 32 7.4 E 28 37 15 20 1020.1 - 0.0
29/03:00am 16.1 10.6 0.3 34 6.9 ESE 19 28 10 15 1020.4 1018.5 0.0
29/02:30am 16.5 11.3 0.2 33 7.2 E 17 24 9 13 1020.6 - 0.0
29/02:00am 17.2 11.1 0.4 32 7.5 ESE 22 30 12 16 1020.6 - 0.0
29/01:30am 17.3 10.1 0.5 32 7.5 ESE 28 37 15 20 1020.7 - 0.0
29/01:00am 16.6 10.6 1.1 35 7.0 ESE 22 28 12 15 1020.8 - 0.0
29/12:30am 16.6 10.2 1.1 35 7.0 SE 24 33 13 18 1021.0 - 0.0
29/12:00am 17.2 10.5 1.2 34 7.2 SE 26 35 14 19 1021.2 1019.2 0.0
 
Date/Time
CST
Temp
°C
App
Temp
°C
Dew
Point
°C
Rel
Hum
%
Delta-T
°C
Wind Press
QNH
hPa
Press
MSL
hPa
Rain since
9am
mm
Dir  Spd
km/h
Gust
km/h
Spd
kts
Gust
kts
28/11:30pm 17.3 11.0 1.3 34 7.3 SE 24 35 13 19 1021.7 - 0.0
28/11:00pm 17.7 11.0 1.7 34 7.4 SE 26 37 14 20 1021.9 - 0.0
28/10:30pm 18.1 11.8 1.6 33 7.6 SE 24 33 13 18 1021.9 - 0.0
28/10:00pm 18.5 12.3 2.4 34 7.6 SE 24 33 13 18 1021.9 - 0.0
28/09:30pm 18.8 13.1 2.6 34 7.7 SE 22 32 12 17 1021.9 - 0.0
28/09:00pm 19.3 14.5 2.6 33 7.9 SE 17 22 9 12 1021.9 1020.0 0.0
28/08:30pm 18.0 14.4 3.1 37 7.1 SE 11 17 6 9 1021.4 - 0.0
28/08:00pm 19.5 15.3 1.9 31 8.2 ESE 13 15 7 8 1021.3 - 0.0
28/07:30pm 19.7 16.0 2.1 31 8.3 ESE 11 15 6 8 1020.9 - 0.0
28/07:00pm 19.6 15.8 2.0 31 8.3 ESE 11 13 6 7 1020.5 - 0.0
28/06:30pm 21.7 17.3 0.3 24 9.9 E 13 17 7 9 1020.3 - 0.0
28/06:00pm 22.8 18.7 0.0 22 10.5 ESE 11 17 6 9 1019.9 1018.0 0.0
28/05:30pm 24.0 18.5 -1.8 18 11.7 E 17 24 9 13 1019.6 - 0.0
28/05:00pm 24.4 20.6 -0.7 19 11.6 E 9 17 5 9 1019.7 - 0.0
28/04:30pm 24.4 19.8 -1.4 18 11.8 E 13 20 7 11 1019.9 - 0.0
28/04:00pm 24.6 20.3 -1.3 18 11.9 E 11 17 6 9 1020.0 - 0.0
28/03:30pm 24.3 19.4 -0.8 19 11.6 ENE 15 20 8 11 1020.0 - 0.0
28/03:00pm 24.2 19.8 0.5 21 11.2 E 13 20 7 11 1020.1 1018.2 0.0
28/02:30pm 23.6 18.3 -0.6 20 11.1 ENE 17 26 9 14 1020.3 - 0.0
28/02:00pm 23.5 18.7 -0.1 21 11.0 E 15 24 8 13 1021.0 - 0.0
28/01:30pm 23.0 17.3 -0.5 21 10.8 E 19 24 10 13 1021.6 - 0.0
28/01:00pm 22.3 16.8 0.8 24 10.1 ENE 19 28 10 15 1022.3 - 0.0
28/12:30pm 22.0 16.5 0.5 24 10.0 E 19 28 10 15 1022.9 - 0.0
28/12:00pm 21.4 15.3 0.6 25 9.6 E 22 32 12 17 1023.7 1021.8 0.0
28/11:30am 20.2 14.1 0.6 27 9.0 E 22 28 12 15 1023.9 - 0.0
28/11:00am 19.6 13.6 1.1 29 8.5 E 22 32 12 17 1024.0 - 0.0
28/10:30am 19.1 12.9 2.0 32 8.0 E 24 32 13 17 1024.1 - 0.0
28/10:00am 18.2 11.5 1.3 32 7.7 E 26 35 14 19 1024.3 - 0.0
28/09:30am 18.2 13.4 2.5 35 7.4 E 17 28 9 15 1024.4 - 0.0
28/09:00am 16.2 10.6 1.1 36 6.7 E 20 30 11 16 1024.2 1022.3 0.0
28/08:30am 14.9 9.6 2.1 42 5.8 SE 19 26 10 14 1023.9 - 0.0
28/08:00am 13.5 8.2 2.1 46 5.1 SSE 19 24 10 13 1023.6 - 0.0
28/07:30am 13.6 7.7 1.6 44 5.3 SE 22 28 12 15 1023.1 - 0.0
28/07:00am 13.9 7.2 1.2 42 5.6 ESE 26 33 14 18 1022.7 - 0.0
28/06:30am 14.0 7.6 1.0 41 5.7 ESE 24 35 13 19 1022.4 - 0.0
28/06:00am 13.6 8.0 1.3 43 5.4 SE 20 32 11 17 1022.4 1020.5 0.0
28/05:30am 14.6 7.8 0.8 39 6.1 ESE 26 37 14 20 1022.2 - 0.0
28/05:00am 14.7 7.5 0.5 38 6.2 ESE 28 35 15 19 1022.1 - 0.0
28/04:30am 15.1 8.6 0.5 37 6.4 ESE 24 32 13 17 1021.9 - 0.0
28/04:00am 15.3 8.5 0.7 37 6.4 ESE 26 39 14 21 1021.8 - 0.0
28/03:30am 15.5 7.5 0.5 36 6.6 ESE 32 44 17 24 1021.8 - 0.0
28/03:00am 15.9 8.4 0.9 36 6.7 ESE 30 41 16 22 1021.8 1019.9 0.0
28/02:30am 16.1 8.9 1.0 36 6.8 ESE 28 41 15 22 1022.0 - 0.0
28/02:00am 16.7 9.2 1.2 35 7.0 ESE 30 39 16 21 1022.1 - 0.0
28/01:30am 16.8 10.1 1.3 35 7.0 ESE 26 37 14 20 1022.4 - 0.0
28/01:00am 17.0 9.9 1.4 35 7.1 ESE 28 41 15 22 1022.4 - 0.0
28/12:30am 17.2 10.1 1.6 35 7.1 ESE 28 35 15 19 1022.5 - 0.0
28/12:00am 17.3 10.7 2.1 36 7.0 ESE 26 39 14 21 1022.6 1020.7 0.0
 
Date/Time
CST
Temp
°C
App
Temp
°C
Dew
Point
°C
Rel
Hum
%
Delta-T
°C
Wind Press
QNH
hPa
Press
MSL
hPa
Rain since
9am
mm
Dir  Spd
km/h
Gust
km/h
Spd
kts
Gust
kts
27/11:30pm 17.6 11.4 2.4 36 7.1 ESE 24 33 13 18 1022.6 - 0.0
27/11:00pm 17.9 11.8 2.6 36 7.2 ESE 24 32 13 17 1022.3 - 0.0
27/10:30pm 18.6 12.1 2.4 34 7.6 ESE 26 33 14 18 1022.4 - 0.0
27/10:00pm 18.9 12.4 2.7 34 7.7 ESE 26 37 14 20 1022.0 - 0.0
27/09:30pm 19.2 13.1 3.0 34 7.7 SE 24 32 13 17 1022.0 - 0.0
27/09:00pm 19.5 13.1 3.2 34 7.8 SE 26 35 14 19 1021.8 1019.9 0.0
27/08:30pm 20.1 14.1 3.3 33 8.1 SE 24 39 13 21 1021.3 - 0.0
27/08:00pm 20.8 14.8 3.5 32 8.4 SE 24 33 13 18 1020.8 - 0.0
27/07:30pm 21.4 15.7 3.1 30 8.9 SE 22 32 12 17 1020.8 - 0.0
27/07:00pm 22.0 16.8 2.7 28 9.4 ESE 19 30 10 16 1020.5 - 0.0
27/06:30pm 22.6 17.4 2.7 27 9.7 ESE 19 28 10 15 1020.3 - 0.0
27/06:00pm 23.5 18.1 2.4 25 10.2 ESE 20 33 11 18 1020.0 1018.1 0.0
27/05:30pm 24.3 18.9 2.5 24 10.7 ESE 20 32 11 17 1020.0 - 0.0
27/05:00pm 25.2 19.9 2.0 22 11.3 ESE 19 32 10 17 1019.7 - 0.0

Other Formats:

Comma delimited format used in spreadsheet applications
http://www.bom.gov.au/fwo/IDD60801/IDD60801.94321.axf

JavaScript Object Notation format (JSON) in row-major order
http://www.bom.gov.au/fwo/IDD60801/IDD60801.94321.json